Time;durP1;ratioP1;P1;durP2;ratioP2;P2;SDS_P1;SDS_P2;PMS_P1;PMS_P2;Temp;Humidity;BMP_temperature;BMP_pressure;BME280_temperature;BME280_humidity;BME280_pressure;Samples;Min_cycle;Max_cycle;Signal;HPM_P1;HPM_P2
2023/06/02 00:02:16;;;;;;;4.50;4.10;;;14.10;1.00;;;;;;5045687;28;20566;-79
2023/06/02 00:04:44;;;;;;;5.50;3.87;;;13.90;1.00;;;;;;5044856;28;20202;-80
2023/06/02 00:07:11;;;;;;;4.33;3.93;;;14.00;1.00;;;;;;5046191;28;20177;-81
2023/06/02 00:09:39;;;;;;;4.57;3.97;;;14.00;99.90;;;;;;5046494;28;20181;-78
2023/06/02 00:12:05;;;;;;;4.90;4.33;;;13.90;99.90;;;;;;5045205;28;20177;-80
2023/06/02 00:14:32;;;;;;;5.67;4.20;;;13.80;99.90;;;;;;5045984;28;20198;-79
2023/06/02 00:17:00;;;;;;;4.90;4.33;;;13.70;99.90;;;;;;5046812;28;20175;-80
2023/06/02 00:19:37;;;;;;;4.53;4.13;;;13.60;1.00;;;;;;5044698;28;20201;-79
2023/06/02 00:22:05;;;;;;;5.70;4.43;;;13.70;99.90;;;;;;5044372;28;20165;-82
2023/06/02 00:24:31;;;;;;;6.83;4.53;;;13.80;1.00;;;;;;5044098;28;20278;-80
2023/06/02 00:26:56;;;;;;;5.27;4.47;;;13.80;99.90;;;;;;5044119;28;20221;-79
2023/06/02 00:29:22;;;;;;;4.97;4.00;;;13.80;99.90;;;;;;5045327;28;20586;-80
2023/06/02 00:31:48;;;;;;;5.27;4.33;;;13.80;99.90;;;;;;5043214;28;20193;-80
2023/06/02 00:34:14;;;;;;;5.00;4.37;;;13.90;99.90;;;;;;5044101;28;20202;-80
2023/06/02 00:36:39;;;;;;;5.30;4.23;;;13.90;1.00;;;;;;5044199;28;20180;-79
2023/06/02 00:39:05;;;;;;;6.10;4.37;;;13.80;99.90;;;;;;5044532;28;20571;-82
2023/06/02 00:41:31;;;;;;;5.77;4.97;;;13.90;99.90;;;;;;5042133;28;20197;-78
2023/06/02 00:43:57;;;;;;;4.87;4.37;;;13.90;99.90;;;;;;5043303;28;20271;-79
2023/06/02 00:46:22;;;;;;;5.97;4.80;;;13.70;99.90;;;;;;5044601;28;20196;-79
2023/06/02 00:48:49;;;;;;;5.60;4.93;;;13.70;99.90;;;;;;5045796;28;20540;-79
2023/06/02 00:51:16;;;;;;;5.67;4.50;;;13.90;37.20;;;;;;5043192;28;20181;-79
2023/06/02 00:53:43;;;;;;;6.77;4.50;;;13.80;80.80;;;;;;5043788;28;20193;-80
2023/06/02 00:56:13;;;;;;;5.60;4.63;;;13.80;99.90;;;;;;5045285;28;20181;-82
2023/06/02 00:58:41;;;;;;;7.57;4.73;;;13.80;99.90;;;;;;5043990;28;20166;-79
2023/06/02 01:01:12;;;;;;;8.07;4.80;;;13.70;99.90;;;;;;5045178;28;20180;-80
2023/06/02 01:03:39;;;;;;;5.03;4.03;;;13.70;99.90;;;;;;5043992;28;20201;-79
2023/06/02 01:06:06;;;;;;;6.47;4.53;;;13.80;99.90;;;;;;5045745;28;20206;-80
2023/06/02 01:08:35;;;;;;;6.27;4.80;;;13.80;99.90;;;;;;5043422;28;20193;-82
2023/06/02 01:11:01;;;;;;;5.47;4.80;;;13.70;99.90;;;;;;5043459;28;20190;-81
2023/06/02 01:13:26;;;;;;;6.23;4.57;;;13.70;99.90;;;;;;5043934;28;20217;-81
2023/06/02 01:15:52;;;;;;;5.53;4.73;;;13.50;99.90;;;;;;5044957;28;20263;-79
2023/06/02 01:18:21;;;;;;;6.70;5.17;;;13.60;99.90;;;;;;5044834;28;20215;-79
2023/06/02 01:20:49;;;;;;;7.80;4.90;;;13.60;99.90;;;;;;5042974;28;20185;-79
2023/06/02 01:23:25;;;;;;;7.67;4.80;;;13.60;99.90;;;;;;5044779;28;20268;-80
2023/06/02 01:25:54;;;;;;;7.87;5.20;;;13.50;99.90;;;;;;5044426;28;20201;-79
2023/06/02 01:28:20;;;;;;;6.03;5.33;;;13.60;10.60;;;;;;5044906;28;20231;-81
2023/06/02 01:30:48;;;;;;;9.00;5.60;;;13.40;1.00;;;;;;5043632;28;20178;-80
2023/06/02 01:33:26;;;;;;;8.33;5.70;;;13.30;80.80;;;;;;5043371;28;20194;-81
2023/06/02 01:35:59;;;;;;;7.00;5.47;;;13.20;99.90;;;;;;5045286;28;20182;-79
2023/06/02 01:38:28;;;;;;;8.10;5.50;;;13.20;99.90;;;;;;5043536;28;20198;-80
2023/06/02 01:41:00;;;;;;;7.00;5.30;;;13.20;29.70;;;;;;5044788;28;20185;-81
2023/06/02 01:43:27;;;;;;;7.70;5.27;;;13.20;33.10;;;;;;5044057;28;20222;-83
2023/06/02 01:45:53;;;;;;;6.87;5.33;;;13.30;99.90;;;;;;5046228;28;20212;-80
2023/06/02 01:48:20;;;;;;;8.93;5.00;;;13.40;14.00;;;;;;5045428;28;20220;-80
2023/06/02 01:50:45;;;;;;;9.00;5.23;;;13.50;99.90;;;;;;5044565;28;20629;-79
2023/06/02 01:53:11;;;;;;;7.70;4.97;;;13.50;74.00;;;;;;5045991;28;20204;-79
2023/06/02 01:55:36;;;;;;;7.17;5.20;;;13.50;99.90;;;;;;5046875;28;20185;-80
2023/06/02 01:58:03;;;;;;;7.93;5.30;;;13.50;99.90;;;;;;5048334;28;20186;-83
2023/06/02 02:00:28;;;;;;;5.90;4.97;;;13.60;1.00;;;;;;5046302;28;20649;-82
2023/06/02 02:02:54;;;;;;;7.83;5.87;;;13.60;1.00;;;;;;5043069;28;20243;-79
2023/06/02 02:05:20;;;;;;;6.93;5.40;;;13.50;1.00;;;;;;5045002;28;20214;-80
2023/06/02 02:07:47;;;;;;;8.17;5.50;;;13.40;1.00;;;;;;5043505;28;20181;-79
2023/06/02 02:10:13;;;;;;;7.50;5.57;;;13.40;1.00;;;;;;5043215;28;20192;-82
2023/06/02 02:12:39;;;;;;;7.93;5.77;;;13.40;99.90;;;;;;5043486;28;20169;-82
2023/06/02 02:15:07;;;;;;;8.97;5.77;;;13.30;11.90;;;;;;5043868;28;20287;-79
2023/06/02 02:17:33;;;;;;;7.10;5.70;;;13.30;91.00;;;;;;5047882;28;20175;-79
2023/06/02 02:20:00;;;;;;;7.53;5.57;;;13.30;99.90;;;;;;5046677;28;20181;-82
2023/06/02 02:22:26;;;;;;;7.80;5.40;;;13.20;99.90;;;;;;5048180;28;20178;-78
2023/06/02 02:24:51;;;;;;;7.60;5.90;;;13.30;99.90;;;;;;5044971;28;20198;-82
2023/06/02 02:27:17;;;;;;;6.63;5.40;;;13.40;99.90;;;;;;5047059;28;20269;-79
2023/06/02 02:29:44;;;;;;;8.27;5.30;;;13.40;99.90;;;;;;5046035;28;20177;-80
2023/06/02 02:32:10;;;;;;;8.67;5.37;;;13.40;99.90;;;;;;5046714;28;20193;-83
2023/06/02 02:34:38;;;;;;;8.40;5.30;;;13.30;99.90;;;;;;5047183;28;20202;-78
2023/06/02 02:37:08;;;;;;;6.43;4.97;;;13.40;99.90;;;;;;5049038;28;20178;-81
2023/06/02 02:39:35;;;;;;;8.00;5.40;;;13.40;99.90;;;;;;5046412;28;20192;-81
2023/06/02 02:42:00;;;;;;;9.63;6.03;;;13.30;99.90;;;;;;5047698;28;20178;-82
2023/06/02 02:44:27;;;;;;;6.80;5.23;;;13.40;99.90;;;;;;5046798;28;20233;-80
2023/06/02 02:46:53;;;;;;;9.33;5.60;;;13.30;99.90;;;;;;5047437;28;20174;-82
2023/06/02 02:49:18;;;;;;;6.97;5.27;;;13.30;1.00;;;;;;5046176;28;20537;-82
2023/06/02 02:51:44;;;;;;;10.07;5.63;;;13.30;53.60;;;;;;5046387;28;20326;-80
2023/06/02 02:54:09;;;;;;;7.70;5.60;;;13.30;98.00;;;;;;5046280;28;20200;-79
2023/06/02 02:56:36;;;;;;;8.87;5.63;;;13.10;99.90;;;;;;5045112;28;20237;-80
2023/06/02 02:59:02;;;;;;;9.30;5.67;;;13.10;99.90;;;;;;5045935;28;20175;-80
2023/06/02 03:01:29;;;;;;;10.03;6.00;;;12.90;99.90;;;;;;5045110;28;20196;-81
2023/06/02 03:03:56;;;;;;;6.33;5.17;;;12.70;1.00;;;;;;5045504;28;20582;-79
2023/06/02 03:06:28;;;;;;;8.93;5.77;;;12.80;1.00;;;;;;5045991;28;20351;-79
2023/06/02 03:08:53;;;;;;;8.77;5.60;;;12.80;99.90;;;;;;5045844;28;20182;-79
2023/06/02 03:11:21;;;;;;;7.27;4.93;;;12.80;99.90;;;;;;5045579;28;20660;-79
2023/06/02 03:13:46;;;;;;;7.23;5.47;;;12.80;99.90;;;;;;5045847;28;20186;-79
2023/06/02 03:16:12;;;;;;;7.00;5.57;;;12.90;99.90;;;;;;5046193;28;20202;-80
2023/06/02 03:18:38;;;;;;;9.53;5.57;;;12.80;99.90;;;;;;5045298;28;20174;-81
2023/06/02 03:21:05;;;;;;;8.00;5.80;;;12.70;1.00;;;;;;5045689;28;20185;-80
2023/06/02 03:23:31;;;;;;;9.90;5.97;;;12.70;99.90;;;;;;5045063;28;20221;-80
2023/06/02 03:25:56;;;;;;;7.90;5.43;;;12.60;1.00;;;;;;5044861;28;20202;-80
2023/06/02 03:28:22;;;;;;;7.10;5.63;;;12.60;1.00;;;;;;5043886;28;20186;-82
2023/06/02 03:30:47;;;;;;;9.27;5.80;;;12.50;99.90;;;;;;5045255;28;20629;-79
2023/06/02 03:33:13;;;;;;;6.57;5.80;;;12.50;99.90;;;;;;5044757;28;20191;-79
2023/06/02 03:35:40;;;;;;;9.53;6.00;;;12.60;1.00;;;;;;5045057;28;20197;-80
2023/06/02 03:38:06;;;;;;;8.67;5.60;;;12.50;1.00;;;;;;5043692;28;20270;-79
2023/06/02 03:40:33;;;;;;;10.00;5.87;;;12.30;1.00;;;;;;5042679;28;20206;-80
2023/06/02 03:42:58;;;;;;;8.77;6.17;;;12.30;1.00;;;;;;5044649;28;20204;-82
2023/06/02 03:45:24;;;;;;;9.10;6.53;;;12.20;1.00;;;;;;5043153;28;20606;-79
2023/06/02 03:47:50;;;;;;;9.00;5.90;;;12.20;1.00;;;;;;5044163;28;20174;-79
2023/06/02 03:50:16;;;;;;;6.87;5.30;;;12.20;1.00;;;;;;5044450;28;20185;-80
2023/06/02 03:52:41;;;;;;;9.13;5.33;;;12.30;29.00;;;;;;5044676;28;20564;-80
2023/06/02 03:55:07;;;;;;;6.07;5.47;;;12.50;1.00;;;;;;5045920;28;20201;-81
2023/06/02 03:57:33;;;;;;;9.63;5.53;;;12.50;1.00;;;;;;5044594;28;20193;-79
2023/06/02 03:59:58;;;;;;;8.10;5.13;;;12.50;1.00;;;;;;5045269;28;20182;-79
2023/06/02 04:02:25;;;;;;;6.30;5.30;;;12.40;1.00;;;;;;5045198;28;20224;-79
2023/06/02 04:04:51;;;;;;;8.60;5.17;;;12.30;1.00;;;;;;5043739;28;20705;-79
2023/06/02 04:07:17;;;;;;;8.97;5.10;;;12.40;1.00;;;;;;5046474;28;20183;-79
2023/06/02 04:09:42;;;;;;;7.53;5.17;;;12.30;1.00;;;;;;5043905;28;20179;-80
2023/06/02 04:12:08;;;;;;;7.33;5.07;;;12.30;1.00;;;;;;5045301;28;20198;-80
2023/06/02 04:14:34;;;;;;;6.47;4.93;;;12.40;1.00;;;;;;5045419;28;20194;-82
2023/06/02 04:17:00;;;;;;;6.97;5.30;;;12.40;1.00;;;;;;5044894;28;20178;-79
2023/06/02 04:19:25;;;;;;;8.53;4.70;;;12.40;1.00;;;;;;5042941;28;20182;-80
2023/06/02 04:21:52;;;;;;;7.43;5.10;;;12.20;1.00;;;;;;5043054;28;20208;-79
2023/06/02 04:24:17;;;;;;;8.60;4.80;;;12.20;1.00;;;;;;5046637;28;20201;-79
2023/06/02 04:26:45;;;;;;;7.50;5.23;;;12.30;1.00;;;;;;5044009;28;20182;-80
2023/06/02 04:29:11;;;;;;;7.13;4.93;;;12.30;1.00;;;;;;5044184;28;20190;-79
2023/06/02 04:31:44;;;;;;;10.73;4.97;;;12.30;1.00;;;;;;5042865;28;20170;-79
2023/06/02 04:34:11;;;;;;;7.30;4.80;;;12.20;1.00;;;;;;5044537;28;20199;-79
2023/06/02 04:36:36;;;;;;;8.03;5.03;;;12.10;1.00;;;;;;5045526;28;20174;-79
2023/06/02 04:39:03;;;;;;;8.17;5.27;;;12.20;99.90;;;;;;5042931;28;20180;-79
2023/06/02 04:41:31;;;;;;;6.83;5.07;;;12.10;1.00;;;;;;5043360;28;20185;-82
2023/06/02 04:43:58;;;;;;;7.07;5.33;;;12.20;1.00;;;;;;5043890;28;20209;-82
2023/06/02 04:46:26;;;;;;;8.67;4.90;;;12.40;99.90;;;;;;5044480;28;20232;-80
2023/06/02 04:48:52;;;;;;;7.27;4.80;;;12.30;99.90;;;;;;5047170;28;20197;-80
2023/06/02 04:51:19;;;;;;;8.77;5.17;;;12.40;99.90;;;;;;5045404;28;20174;-80
2023/06/02 04:53:44;;;;;;;8.27;4.87;;;12.20;72.90;;;;;;5045524;28;20187;-79
2023/06/02 04:56:10;;;;;;;7.40;4.90;;;12.20;99.90;;;;;;5047419;28;20242;-82
2023/06/02 04:58:36;;;;;;;5.17;4.60;;;12.30;1.00;;;;;;5049939;28;20181;-82
2023/06/02 05:01:03;;;;;;;7.93;5.00;;;12.20;1.00;;;;;;5049435;28;20205;-82
2023/06/02 05:03:28;;;;;;;6.77;4.50;;;12.00;1.00;;;;;;5048251;28;20202;-82
2023/06/02 05:05:54;;;;;;;6.10;4.47;;;12.20;1.00;;;;;;5049447;28;20313;-80
2023/06/02 05:08:19;;;;;;;7.63;4.63;;;12.00;1.00;;;;;;5048190;28;20163;-80
2023/06/02 05:10:45;;;;;;;6.47;4.60;;;12.20;1.00;;;;;;5047874;28;20189;-81
2023/06/02 05:13:12;;;;;;;8.40;4.90;;;12.30;1.00;;;;;;5047466;28;20198;-82
2023/06/02 05:15:39;;;;;;;6.87;4.57;;;12.20;1.00;;;;;;5049820;28;20205;-82
2023/06/02 05:18:04;;;;;;;6.13;4.60;;;12.20;99.90;;;;;;5049467;28;20171;-81
2023/06/02 05:20:30;;;;;;;7.97;4.57;;;12.30;99.90;;;;;;5048913;28;20201;-81
2023/06/02 05:22:55;;;;;;;6.80;4.90;;;12.30;99.90;;;;;;5051609;28;20236;-81
2023/06/02 05:25:21;;;;;;;8.30;4.70;;;12.40;1.00;;;;;;5049952;28;20289;-81
2023/06/02 05:27:46;;;;;;;8.57;4.73;;;12.40;1.00;;;;;;5038247;28;20190;-80
2023/06/02 05:30:14;;;;;;;7.27;4.87;;;12.20;1.00;;;;;;5037732;28;20167;-80
2023/06/02 05:32:39;;;;;;;7.17;4.90;;;12.30;1.00;;;;;;5040498;28;20265;-81
2023/06/02 05:35:05;;;;;;;5.97;4.53;;;12.30;1.00;;;;;;5035655;28;20267;-77
2023/06/02 05:37:31;;;;;;;4.60;4.10;;;12.20;99.90;;;;;;5034221;28;20175;-81
2023/06/02 05:39:56;;;;;;;6.33;4.40;;;12.10;1.00;;;;;;5034394;28;20202;-82
2023/06/02 05:42:22;;;;;;;9.53;4.67;;;12.30;99.90;;;;;;5034897;28;20178;-82
2023/06/02 05:44:47;;;;;;;6.03;4.30;;;12.50;1.00;;;;;;5035567;28;20218;-85
2023/06/02 05:47:13;;;;;;;6.43;4.10;;;12.60;1.00;;;;;;5035281;28;20175;-80
2023/06/02 05:49:38;;;;;;;6.20;4.40;;;12.60;1.00;;;;;;5037276;28;20189;-81
2023/06/02 05:52:04;;;;;;;7.40;4.60;;;12.50;1.00;;;;;;5037636;28;20170;-81
2023/06/02 05:54:30;;;;;;;7.50;4.60;;;12.70;1.00;;;;;;5040705;28;20290;-84
2023/06/02 05:56:55;;;;;;;7.20;3.83;;;12.60;1.00;;;;;;5039294;28;20182;-80
2023/06/02 05:59:21;;;;;;;4.90;3.80;;;12.70;1.00;;;;;;5042672;28;20668;-81
2023/06/02 06:01:47;;;;;;;6.20;4.20;;;12.80;1.00;;;;;;5040134;28;20178;-80
2023/06/02 06:04:12;;;;;;;5.60;4.27;;;12.80;99.90;;;;;;5042279;28;20198;-80
2023/06/02 06:06:38;;;;;;;6.27;4.33;;;12.90;99.90;;;;;;5042326;28;20181;-81
2023/06/02 06:09:05;;;;;;;6.57;3.90;;;12.90;99.90;;;;;;5042974;28;20241;-81
2023/06/02 06:11:31;;;;;;;4.83;3.73;;;12.90;99.90;;;;;;5044964;28;20170;-82
2023/06/02 06:13:56;;;;;;;7.43;3.90;;;12.90;99.90;;;;;;5043922;28;20190;-81
2023/06/02 06:16:22;;;;;;;5.30;4.00;;;12.90;91.40;;;;;;5045392;28;20179;-80
2023/06/02 06:18:47;;;;;;;7.30;3.90;;;13.00;3.10;;;;;;5042698;28;20202;-80
2023/06/02 06:21:13;;;;;;;6.37;4.33;;;12.90;99.90;;;;;;5041237;28;20171;-83
2023/06/02 06:23:39;;;;;;;6.50;4.33;;;12.70;4.90;;;;;;5043699;28;20201;-82
2023/06/02 06:26:05;;;;;;;5.57;4.30;;;12.70;99.90;;;;;;5043472;28;20249;-80
2023/06/02 06:28:30;;;;;;;5.90;4.37;;;12.90;40.90;;;;;;5040609;28;20198;-81
2023/06/02 06:30:56;;;;;;;7.87;3.90;;;12.80;80.90;;;;;;5039140;28;20167;-81
2023/06/02 06:33:21;;;;;;;4.57;3.93;;;12.80;93.30;;;;;;5041567;28;20194;-81
2023/06/02 06:35:47;;;;;;;4.87;3.60;;;12.60;99.90;;;;;;5043104;28;20573;-81
2023/06/02 06:38:12;;;;;;;7.77;3.97;;;12.50;99.90;;;;;;5040410;28;20189;-82
2023/06/02 06:40:38;;;;;;;5.47;4.03;;;12.50;99.90;;;;;;5039528;28;20218;-82
2023/06/02 06:43:04;;;;;;;5.60;3.90;;;12.70;99.90;;;;;;5040503;28;20181;-81
2023/06/02 06:45:29;;;;;;;6.13;3.83;;;12.70;1.00;;;;;;5078061;22;20229;-83
2023/06/02 06:47:55;;;;;;;5.47;4.00;;;12.60;99.90;;;;;;5057288;28;20658;-82
2023/06/02 06:50:21;;;;;;;5.83;4.17;;;12.60;29.70;;;;;;5057078;28;20520;-82
2023/06/02 06:52:50;;;;;;;7.50;3.63;;;12.60;99.90;;;;;;5057259;28;20196;-82
2023/06/02 06:55:15;;;;;;;5.10;3.40;;;12.60;99.90;;;;;;5075133;28;20207;-82
2023/06/02 06:57:41;;;;;;;6.40;3.73;;;12.90;99.90;;;;;;5057207;28;20169;-82
2023/06/02 07:00:07;;;;;;;5.30;3.73;;;12.80;99.90;;;;;;5056529;28;20184;-81
2023/06/02 07:02:33;;;;;;;7.10;4.10;;;12.70;16.20;;;;;;5056651;28;20173;-81
2023/06/02 07:04:58;;;;;;;5.23;3.87;;;12.90;1.00;;;;;;5056433;28;20223;-82
2023/06/02 07:07:24;;;;;;;6.10;4.13;;;12.80;99.90;;;;;;5056926;28;20173;-82
2023/06/02 07:09:50;;;;;;;6.53;3.57;;;12.90;1.00;;;;;;5056386;28;20252;-81
2023/06/02 07:12:15;;;;;;;6.17;3.50;;;12.90;99.90;;;;;;5056666;28;20232;-81
2023/06/02 07:14:41;;;;;;;9.37;3.80;;;12.80;1.00;;;;;;5056821;28;20201;-81
2023/06/02 07:17:07;;;;;;;4.30;3.20;;;12.80;1.00;;;;;;5074826;28;20222;-81
2023/06/02 07:19:33;;;;;;;5.13;3.60;;;13.10;1.00;;;;;;5074451;28;20177;-81
2023/06/02 07:21:58;;;;;;;5.27;3.60;;;13.10;1.00;;;;;;5056243;28;20173;-81
2023/06/02 07:24:24;;;;;;;6.33;3.70;;;13.30;1.00;;;;;;5074478;28;20201;-81
2023/06/02 07:26:49;;;;;;;6.77;3.77;;;13.60;1.00;;;;;;5074931;28;20166;-81
2023/06/02 07:29:15;;;;;;;5.23;3.37;;;13.60;99.90;;;;;;5056514;28;20173;-82
2023/06/02 07:31:40;;;;;;;5.67;3.67;;;13.10;1.00;;;;;;5073717;28;20187;-81
2023/06/02 07:34:06;;;;;;;7.00;3.70;;;13.00;1.00;;;;;;5056518;28;20193;-81
2023/06/02 07:36:32;;;;;;;6.80;3.60;;;13.20;1.00;;;;;;5074362;28;20180;-82
2023/06/02 07:38:57;;;;;;;5.23;3.67;;;13.40;1.00;;;;;;5056466;28;20188;-82
2023/06/02 07:41:23;;;;;;;5.37;3.83;;;13.60;99.90;;;;;;5073860;28;20601;-82
2023/06/02 07:43:48;;;;;;;8.97;3.77;;;13.70;99.90;;;;;;5055963;28;20216;-82
2023/06/02 07:46:14;;;;;;;6.20;3.77;;;13.80;99.90;;;;;;5056240;28;20253;-82
2023/06/02 07:48:40;;;;;;;7.50;3.53;;;13.90;1.00;;;;;;5056393;28;20192;-82
2023/06/02 07:51:06;;;;;;;6.20;4.10;;;14.10;99.90;;;;;;5056065;28;20169;-83
2023/06/02 07:53:31;;;;;;;5.27;4.00;;;14.20;99.90;;;;;;5074364;28;20181;-81
2023/06/02 07:55:57;;;;;;;6.00;3.43;;;14.30;99.90;;;;;;5074505;28;20242;-82
2023/06/02 07:58:23;;;;;;;8.53;3.70;;;14.20;99.90;;;;;;5056271;28;20173;-82
2023/06/02 08:00:48;;;;;;;8.13;3.93;;;14.30;99.90;;;;;;5055485;28;20257;-82
2023/06/02 08:03:14;;;;;;;6.70;3.87;;;14.20;18.90;;;;;;5056069;28;20184;-82
2023/06/02 08:05:40;;;;;;;5.77;3.83;;;14.10;1.00;;;;;;5073754;28;20767;-82
2023/06/02 08:08:05;;;;;;;5.67;3.40;;;14.00;1.00;;;;;;5056106;28;20622;-82
2023/06/02 08:10:31;;;;;;;4.77;3.83;;;14.10;99.90;;;;;;5055492;28;20178;-82
2023/06/02 08:12:57;;;;;;;6.10;3.83;;;14.10;99.90;;;;;;5073855;28;20227;-82
2023/06/02 08:15:23;;;;;;;6.17;4.30;;;14.10;99.90;;;;;;5055996;28;20263;-81
2023/06/02 08:17:48;;;;;;;6.90;3.97;;;14.10;51.10;;;;;;5056287;28;20235;-81
2023/06/02 08:20:16;;;;;;;7.27;4.30;;;14.40;1.00;;;;;;5073422;28;20593;-81
2023/06/02 08:22:44;;;;;;;8.10;3.70;;;14.20;1.00;;;;;;5072195;28;20162;-82
2023/06/02 08:25:10;;;;;;;7.53;3.90;;;14.70;99.90;;;;;;5052778;28;20703;-81
2023/06/02 08:27:36;;;;;;;6.33;3.77;;;15.10;1.00;;;;;;5073493;28;20180;-82
2023/06/02 08:30:04;;;;;;;5.37;4.03;;;15.30;1.00;;;;;;5054946;28;20252;-82
2023/06/02 08:32:29;;;;;;;5.97;3.30;;;15.40;1.00;;;;;;5055640;28;20165;-82
2023/06/02 08:34:56;;;;;;;6.20;3.63;;;15.80;1.00;;;;;;5054678;28;20193;-81
2023/06/02 08:37:22;;;;;;;6.33;3.70;;;16.30;99.90;;;;;;5055532;28;20640;-81
2023/06/02 08:39:50;;;;;;;6.10;3.50;;;16.40;99.30;;;;;;5073030;28;20247;-81
2023/06/02 08:42:16;;;;;;;5.17;3.50;;;16.20;99.90;;;;;;5073275;28;20181;-82
2023/06/02 08:44:43;;;;;;;7.27;3.97;;;15.90;99.90;;;;;;5072855;28;20204;-81
2023/06/02 08:47:11;;;;;;;5.90;3.80;;;16.10;99.90;;;;;;5055212;28;20283;-81
2023/06/02 08:49:41;;;;;;;4.93;3.30;;;16.00;99.90;;;;;;5054854;28;20176;-80
2023/06/02 08:52:15;;;;;;;5.47;3.40;;;16.20;99.90;;;;;;5055638;28;20165;-81
2023/06/02 08:54:41;;;;;;;6.90;3.43;;;16.10;99.90;;;;;;5073382;28;20195;-81
2023/06/02 08:57:12;;;;;;;6.27;3.70;;;16.00;99.90;;;;;;5072801;28;20177;-81
2023/06/02 08:59:39;;;;;;;6.30;3.53;;;16.20;99.90;;;;;;5072712;28;20264;-81
2023/06/02 09:02:06;;;;;;;8.47;3.97;;;16.20;99.90;;;;;;5073003;28;20185;-82
2023/06/02 09:04:31;;;;;;;7.53;3.80;;;16.10;99.90;;;;;;5055254;28;20204;-81
2023/06/02 09:07:26;;;;;;;6.00;3.73;;;16.00;99.90;;;;;;5073139;28;20169;-82
2023/06/02 09:09:53;;;;;;;6.33;3.90;;;16.20;99.90;;;;;;5037754;28;20186;-81
2023/06/02 09:12:20;;;;;;;5.43;4.10;;;16.40;61.30;;;;;;5054791;28;20197;-81
2023/06/02 09:14:47;;;;;;;9.30;4.27;;;16.70;71.30;;;;;;5072812;28;20189;-82
2023/06/02 09:17:30;;;;;;;6.47;3.90;;;16.70;63.20;;;;;;5072875;28;20180;-82
2023/06/02 09:19:58;;;;;;;7.77;4.30;;;16.90;99.90;;;;;;5072397;28;20177;-81
2023/06/02 09:22:24;;;;;;;8.33;3.87;;;17.10;1.00;;;;;;5054917;28;20173;-81
2023/06/02 09:24:52;;;;;;;8.27;4.30;;;16.90;1.00;;;;;;5072490;28;20199;-81
2023/06/02 09:27:18;;;;;;;5.00;3.70;;;16.90;1.00;;;;;;5054077;28;20182;-82
2023/06/02 09:29:45;;;;;;;6.37;3.97;;;16.80;1.00;;;;;;5072279;28;20161;-81
2023/06/02 09:32:14;;;;;;;6.77;4.23;;;16.60;1.00;;;;;;5054255;28;20173;-81
2023/06/02 09:34:40;;;;;;;7.40;3.90;;;16.60;99.90;;;;;;5071933;28;20228;-81
2023/06/02 09:37:07;;;;;;;6.30;3.90;;;16.80;32.90;;;;;;5072519;28;20173;-82
2023/06/02 09:39:42;;;;;;;6.30;3.90;;;17.20;8.60;;;;;;5054967;28;20264;-81
2023/06/02 09:42:08;;;;;;;6.63;4.33;;;17.40;1.00;;;;;;5054433;28;20196;-82
2023/06/02 09:44:33;;;;;;;6.23;3.80;;;17.40;1.00;;;;;;5054438;28;20215;-81
2023/06/02 09:47:01;;;;;;;5.07;3.70;;;17.70;1.00;;;;;;5054510;28;20622;-82
2023/06/02 09:49:38;;;;;;;5.60;4.30;;;17.60;1.00;;;;;;5072358;28;20176;-81
2023/06/02 09:52:11;;;;;;;7.93;3.70;;;17.60;1.00;;;;;;5072996;28;20179;-82
2023/06/02 09:54:37;;;;;;;7.03;4.13;;;18.00;1.00;;;;;;5054283;28;20205;-81
2023/06/02 09:57:03;;;;;;;8.27;3.93;;;18.00;1.00;;;;;;5054954;28;20294;-81
2023/06/02 09:59:30;;;;;;;6.57;4.10;;;18.00;1.00;;;;;;5054498;28;20295;-80
2023/06/02 10:01:56;;;;;;;5.87;3.90;;;17.90;1.00;;;;;;5072395;28;20183;-81
2023/06/02 10:04:21;;;;;;;6.73;3.97;;;17.60;1.00;;;;;;5054063;28;20192;-81
2023/06/02 10:07:25;;;;;;;6.30;4.17;;;17.60;1.00;;;;;;5054632;28;20260;-81
2023/06/02 10:10:01;;;;;;;5.20;4.37;;;17.70;1.00;;;;;;5071950;28;20218;-81
2023/06/02 10:12:26;;;;;;;6.50;4.40;;;17.80;1.00;;;;;;5073356;28;20168;-81
2023/06/02 10:15:09;;;;;;;6.67;4.43;;;18.10;1.00;;;;;;5078272;28;20189;-82
2023/06/02 10:17:38;;;;;;;8.30;4.23;;;18.60;1.00;;;;;;5055624;28;20203;-81
2023/06/02 10:20:51;;;;;;;4.97;4.27;;;18.50;1.00;;;;;;5067760;28;20178;-81
2023/06/02 10:23:35;;;;;;;5.87;4.03;;;18.90;1.00;;;;;;4990443;28;20222;-81
2023/06/02 10:26:20;;;;;;;6.97;4.23;;;19.40;1.00;;;;;;4990341;28;20632;-81
2023/06/02 10:28:46;;;;;;;7.43;4.07;;;19.30;1.00;;;;;;5044270;28;20193;-85
2023/06/02 10:31:12;;;;;;;7.30;4.20;;;19.00;1.00;;;;;;5073286;28;20165;-81
2023/06/02 10:33:45;;;;;;;7.23;4.13;;;19.50;1.00;;;;;;5064396;28;20232;-81
2023/06/02 10:36:13;;;;;;;5.23;4.13;;;19.60;1.00;;;;;;5058157;28;20197;-84
2023/06/02 10:38:39;;;;;;;5.87;4.07;;;19.80;1.00;;;;;;5045989;28;20185;-87
2023/06/02 10:41:05;;;;;;;5.77;4.10;;;19.90;1.00;;;;;;5073302;28;20205;-80
2023/06/02 10:43:33;;;;;;;4.87;4.23;;;19.80;1.00;;;;;;5049395;28;20636;-80
2023/06/02 10:46:18;;;;;;;5.13;3.80;;;19.90;1.00;;;;;;5053926;28;20205;-81
2023/06/02 10:48:44;;;;;;;5.73;4.30;;;20.10;1.00;;;;;;5046709;28;20174;-81
2023/06/02 10:51:10;;;;;;;5.70;4.27;;;20.20;1.00;;;;;;5059785;28;20174;-83
2023/06/02 10:54:06;;;;;;;8.43;3.80;;;20.40;1.00;;;;;;5037620;28;20182;-82
2023/06/02 10:56:45;;;;;;;5.67;3.70;;;20.20;99.90;;;;;;5037444;28;20694;-82
2023/06/02 10:59:29;;;;;;;5.63;3.77;;;19.90;99.90;;;;;;5055177;28;20181;-81
2023/06/02 11:01:55;;;;;;;6.77;3.83;;;20.10;99.90;;;;;;5037002;28;20189;-83
2023/06/02 11:04:33;;;;;;;7.00;3.70;;;20.20;99.90;;;;;;5054758;28;20213;-82
2023/06/02 11:07:18;;;;;;;5.77;3.90;;;19.90;99.90;;;;;;5037222;28;20184;-82
2023/06/02 11:09:45;;;;;;;7.33;3.40;;;20.30;99.90;;;;;;5054575;28;20265;-79
2023/06/02 11:12:11;;;;;;;5.67;3.90;;;20.50;99.90;;;;;;5057039;28;20195;-81
2023/06/02 11:14:58;;;;;;;6.47;3.97;;;21.10;99.90;;;;;;5057713;28;20190;-81
2023/06/02 11:17:32;;;;;;;4.80;3.80;;;20.70;99.90;;;;;;5039904;28;20182;-81
2023/06/02 11:19:58;;;;;;;5.63;3.43;;;20.70;99.90;;;;;;5057111;28;20169;-81
2023/06/02 11:22:25;;;;;;;5.87;4.00;;;21.20;99.90;;;;;;5040238;28;20169;-81
2023/06/02 11:24:51;;;;;;;6.82;3.65;;;21.10;99.90;;;;;;5058304;28;20555;-81
2023/06/02 11:27:17;;;;;;;7.68;3.88;;;21.50;99.90;;;;;;5075160;28;20181;-81
2023/06/02 11:29:44;;;;;;;4.93;3.60;;;21.50;99.90;;;;;;5049831;28;20173;-81
2023/06/02 11:32:10;;;;;;;4.90;3.80;;;21.70;99.90;;;;;;5069330;28;20196;-81
2023/06/02 11:34:36;;;;;;;5.95;4.20;;;21.80;99.90;;;;;;5077687;28;20193;-80
2023/06/02 11:37:16;;;;;;;7.18;4.20;;;21.80;99.90;;;;;;5060032;28;20177;-81
2023/06/02 11:39:54;;;;;;;6.68;3.78;;;21.60;99.90;;;;;;5077216;28;20164;-82
2023/06/02 11:42:31;;;;;;;6.38;4.35;;;21.20;99.90;;;;;;5059477;28;20169;-81
2023/06/02 11:44:57;;;;;;;6.40;4.45;;;21.10;99.90;;;;;;5047267;28;20205;-80
2023/06/02 11:47:22;;;;;;;6.18;4.25;;;21.30;99.90;;;;;;5058065;28;20176;-81
2023/06/02 11:49:48;;;;;;;4.72;3.53;;;21.50;99.90;;;;;;5076748;28;20169;-81
2023/06/02 11:52:14;;;;;;;6.90;3.53;;;21.80;99.90;;;;;;5078192;28;20275;-81
2023/06/02 11:54:56;;;;;;;5.65;3.83;;;22.30;99.90;;;;;;5060655;28;20199;-81
2023/06/02 11:57:33;;;;;;;7.32;4.10;;;22.50;99.90;;;;;;5062981;28;20263;-81
2023/06/02 12:00:19;;;;;;;8.50;3.80;;;22.10;99.90;;;;;;5050749;28;20606;-82
2023/06/02 12:02:57;;;;;;;4.55;3.58;;;22.20;99.90;;;;;;5076992;28;20169;-81
2023/06/02 12:05:33;;;;;;;5.82;3.70;;;22.50;99.90;;;;;;5059714;28;20206;-81
2023/06/02 12:08:22;;;;;;;8.13;3.65;;;22.10;99.90;;;;;;5059826;28;20164;-82
2023/06/02 12:10:49;;;;;;;5.18;3.53;;;22.60;99.90;;;;;;5077039;28;20172;-81
2023/06/02 12:13:27;;;;;;;5.45;3.72;;;22.70;99.90;;;;;;5059222;28;20196;-81
2023/06/02 12:15:54;;;;;;;6.70;3.80;;;22.80;99.90;;;;;;5063559;28;20178;-81
2023/06/02 12:18:32;;;;;;;4.55;3.10;;;23.10;99.90;;;;;;5073860;28;20197;-80
2023/06/02 12:20:59;;;;;;;6.30;3.83;;;23.20;99.90;;;;;;5070519;28;20177;-79
2023/06/02 12:23:44;;;;;;;6.32;3.70;;;23.10;99.90;;;;;;5057887;28;20197;-80
2023/06/02 12:26:10;;;;;;;3.80;3.40;;;23.40;99.90;;;;;;5075889;28;20203;-80
2023/06/02 12:28:38;;;;;;;4.22;3.25;;;23.50;99.90;;;;;;5058139;28;20173;-80
2023/06/02 12:31:04;;;;;;;4.05;3.13;;;23.90;99.90;;;;;;5075162;28;20173;-80
2023/06/02 12:33:29;;;;;;;5.28;3.15;;;24.10;99.90;;;;;;5056951;28;20242;-77
2023/06/02 12:35:55;;;;;;;6.65;3.83;;;23.70;99.90;;;;;;5064024;28;20267;-80
2023/06/02 12:38:20;;;;;;;5.82;3.60;;;22.70;99.90;;;;;;5072774;28;20549;-79
2023/06/02 12:40:47;;;;;;;5.20;3.40;;;23.00;99.90;;;;;;5056944;28;20173;-80
2023/06/02 12:43:13;;;;;;;5.30;3.13;;;23.30;99.90;;;;;;5075092;28;20256;-80
2023/06/02 12:45:39;;;;;;;4.78;3.05;;;23.80;99.90;;;;;;5075584;28;20213;-80
2023/06/02 12:48:05;;;;;;;4.45;3.03;;;23.70;99.90;;;;;;5074920;28;20176;-80
2023/06/02 12:50:30;;;;;;;3.47;2.70;;;23.70;99.90;;;;;;5074281;28;20169;-80
2023/06/02 12:52:57;;;;;;;6.03;2.78;;;24.20;99.90;;;;;;5057585;28;20172;-80
2023/06/02 12:55:23;;;;;;;5.18;2.78;;;23.80;99.90;;;;;;5057069;28;20197;-80